Time;durP1;ratioP1;P1;durP2;ratioP2;P2;SDS_P1;SDS_P2;PMS_P1;PMS_P2;Temp;Humidity;BMP_temperature;BMP_pressure;BME280_temperature;BME280_humidity;BME280_pressure;Samples;Min_cycle;Max_cycle;Signal;HPM_P1;HPM_P2
2023/11/26 00:01:01;;;;;;;11.07;5.30;;;1.10;99.90;;;;;;5068397;28;20044;-64
2023/11/26 00:03:27;;;;;;;13.10;5.20;;;1.10;99.90;;;;;;5072781;28;20051;-63
2023/11/26 00:05:53;;;;;;;11.27;5.03;;;1.00;99.90;;;;;;5082676;28;20040;-60
2023/11/26 00:08:18;;;;;;;17.38;5.47;;;1.00;99.90;;;;;;5076247;28;20067;-62
2023/11/26 00:10:44;;;;;;;10.82;5.32;;;0.90;99.90;;;;;;5075550;28;20056;-65
2023/11/26 00:13:09;;;;;;;11.18;5.20;;;0.90;99.90;;;;;;5079668;28;20073;-62
2023/11/26 00:15:35;;;;;;;10.63;5.00;;;0.80;99.90;;;;;;5079755;28;20539;-65
2023/11/26 00:18:00;;;;;;;12.73;5.60;;;0.80;99.90;;;;;;5063780;28;20056;-63
2023/11/26 00:20:27;;;;;;;13.65;4.82;;;0.80;99.90;;;;;;5062899;28;20051;-62
2023/11/26 00:22:52;;;;;;;17.70;7.15;;;0.80;99.90;;;;;;5050899;28;20044;-63
2023/11/26 00:25:18;;;;;;;16.20;5.80;;;0.80;99.90;;;;;;5058053;28;20040;-63
2023/11/26 00:27:44;;;;;;;11.88;4.72;;;0.80;99.90;;;;;;5059505;28;20087;-63
2023/11/26 00:30:10;;;;;;;14.02;5.07;;;0.80;99.90;;;;;;5055493;28;20100;-63
2023/11/26 00:32:35;;;;;;;13.95;5.22;;;0.80;99.90;;;;;;5055257;28;20093;-63
2023/11/26 00:35:01;;;;;;;10.25;5.07;;;0.70;99.90;;;;;;5062014;28;20493;-62
2023/11/26 00:37:27;;;;;;;13.25;4.95;;;0.80;99.90;;;;;;5057523;28;20052;-63
2023/11/26 00:39:52;;;;;;;13.27;5.45;;;0.80;99.90;;;;;;5054924;28;20032;-65
2023/11/26 00:42:21;;;;;;;18.73;5.88;;;0.80;99.90;;;;;;5059978;28;20040;-66
2023/11/26 00:44:47;;;;;;;10.43;5.03;;;0.70;99.90;;;;;;5054658;28;20500;-64
2023/11/26 00:47:12;;;;;;;12.35;5.15;;;0.70;99.90;;;;;;5047167;28;20075;-61
2023/11/26 00:49:38;;;;;;;12.48;5.18;;;0.70;99.90;;;;;;5050243;28;20032;-64
2023/11/26 00:52:04;;;;;;;12.50;5.57;;;0.70;99.90;;;;;;5056689;28;20110;-63
2023/11/26 00:54:29;;;;;;;9.85;4.95;;;0.60;99.90;;;;;;5057281;28;20512;-58
2023/11/26 00:56:55;;;;;;;9.60;4.93;;;0.60;99.90;;;;;;5057308;28;20109;-63
2023/11/26 00:59:21;;;;;;;9.77;5.07;;;0.60;99.90;;;;;;5058915;28;20041;-64
2023/11/26 01:01:46;;;;;;;11.85;4.78;;;0.60;99.90;;;;;;5058584;28;20041;-65
2023/11/26 01:04:12;;;;;;;10.25;5.85;;;0.60;99.90;;;;;;5051131;28;20039;-65
2023/11/26 01:06:38;;;;;;;9.45;5.10;;;0.50;99.90;;;;;;5052572;28;20051;-65
2023/11/26 01:09:04;;;;;;;9.73;5.45;;;0.60;99.90;;;;;;5057821;28;20072;-66
2023/11/26 01:11:29;;;;;;;12.60;5.53;;;0.50;99.90;;;;;;5057532;28;20049;-64
2023/11/26 01:13:55;;;;;;;8.85;4.95;;;0.50;99.90;;;;;;5056389;28;20078;-64
2023/11/26 01:16:20;;;;;;;9.90;5.38;;;0.50;99.90;;;;;;5048327;28;20578;-64
2023/11/26 01:18:46;;;;;;;13.90;6.00;;;0.50;99.90;;;;;;5049218;28;20041;-65
2023/11/26 01:21:13;;;;;;;11.18;5.35;;;0.50;99.90;;;;;;5048663;28;20047;-64
2023/11/26 01:23:39;;;;;;;14.02;5.45;;;0.40;99.90;;;;;;5041400;28;20040;-58
2023/11/26 01:26:05;;;;;;;11.73;5.40;;;0.40;99.90;;;;;;5050139;28;20419;-61
2023/11/26 01:28:31;;;;;;;13.70;5.20;;;0.50;99.90;;;;;;5041413;28;20041;-65
2023/11/26 01:30:57;;;;;;;14.70;5.47;;;0.50;99.90;;;;;;5052110;28;20037;-64
2023/11/26 01:33:23;;;;;;;13.10;4.90;;;0.40;99.90;;;;;;5059113;28;20693;-64
2023/11/26 01:35:48;;;;;;;13.35;5.22;;;0.40;99.90;;;;;;5055576;28;20060;-62
2023/11/26 01:38:14;;;;;;;12.32;5.93;;;0.30;99.90;;;;;;5054338;28;20033;-64
2023/11/26 01:40:39;;;;;;;15.30;4.75;;;0.30;99.90;;;;;;5058806;28;20044;-65
2023/11/26 01:43:05;;;;;;;14.98;5.18;;;0.20;99.90;;;;;;5060137;28;20697;-66
2023/11/26 01:45:31;;;;;;;8.75;4.63;;;0.20;99.90;;;;;;5058480;28;20067;-63
2023/11/26 01:47:58;;;;;;;11.52;4.80;;;0.20;99.90;;;;;;5059714;28;20031;-59
2023/11/26 01:50:24;;;;;;;12.63;5.63;;;0.10;99.90;;;;;;5064805;28;20127;-60
2023/11/26 01:52:52;;;;;;;10.38;5.28;;;0.10;99.90;;;;;;5062457;28;20139;-62
2023/11/26 01:55:19;;;;;;;13.75;5.65;;;0.00;99.90;;;;;;5055664;28;20512;-65
2023/11/26 01:57:45;;;;;;;12.45;5.70;;;0.00;99.90;;;;;;5057376;28;20049;-64
2023/11/26 02:00:14;;;;;;;13.45;5.78;;;0.00;99.90;;;;;;5063610;28;20040;-64
2023/11/26 02:02:40;;;;;;;12.80;5.53;;;0.00;99.90;;;;;;5054741;28;20040;-64
2023/11/26 02:05:10;;;;;;;13.27;5.38;;;0.00;99.90;;;;;;5066773;28;20091;-65
2023/11/26 02:07:36;;;;;;;12.05;5.95;;;0.00;99.90;;;;;;5060240;28;20412;-64
2023/11/26 02:10:02;;;;;;;12.15;6.72;;;0.00;99.90;;;;;;5055537;28;20043;-65
2023/11/26 02:12:28;;;;;;;16.83;6.25;;;0.00;99.90;;;;;;5062206;28;20048;-62
2023/11/26 02:14:53;;;;;;;11.60;6.15;;;0.00;99.90;;;;;;5061629;28;20045;-64
2023/11/26 02:17:20;;;;;;;12.23;6.70;;;0.00;99.90;;;;;;5060842;28;20127;-64
2023/11/26 02:19:46;;;;;;;13.27;6.35;;;0.00;99.90;;;;;;5063742;28;20703;-64
2023/11/26 02:22:12;;;;;;;16.52;7.18;;;0.00;99.90;;;;;;5056851;28;20107;-64
2023/11/26 02:24:47;;;;;;;15.65;7.40;;;0.00;99.90;;;;;;5054215;28;20063;-67
2023/11/26 02:27:14;;;;;;;17.08;7.20;;;0.00;99.90;;;;;;5060844;28;20048;-65
2023/11/26 02:29:40;;;;;;;16.70;7.70;;;0.00;99.90;;;;;;5065426;28;20085;-64
2023/11/26 02:32:07;;;;;;;19.73;7.78;;;0.10;99.90;;;;;;5054706;28;20043;-63
2023/11/26 02:34:33;;;;;;;15.82;8.10;;;0.10;99.90;;;;;;5055700;28;20048;-65
2023/11/26 02:36:59;;;;;;;23.20;8.73;;;0.10;99.90;;;;;;5056722;28;22204;-63
2023/11/26 02:39:28;;;;;;;14.00;8.55;;;0.10;99.90;;;;;;5064774;28;20610;-65
2023/11/26 02:41:54;;;;;;;19.73;9.13;;;0.00;99.90;;;;;;5059011;28;20041;-63
2023/11/26 02:44:20;;;;;;;15.63;8.90;;;0.00;99.90;;;;;;5066301;28;20032;-61
2023/11/26 02:46:47;;;;;;;17.13;8.70;;;0.00;99.90;;;;;;5059321;28;20048;-62
2023/11/26 02:49:13;;;;;;;15.48;9.57;;;0.10;99.90;;;;;;5060224;28;20036;-63
2023/11/26 02:51:38;;;;;;;21.65;9.95;;;0.10;99.90;;;;;;5059304;28;20572;-64
2023/11/26 02:54:04;;;;;;;20.60;9.80;;;0.10;99.90;;;;;;5058843;28;20044;-64
2023/11/26 02:56:30;;;;;;;22.98;11.38;;;0.10;99.90;;;;;;5058946;28;20458;-64
2023/11/26 02:58:56;;;;;;;24.23;10.45;;;0.00;99.90;;;;;;5059233;28;20685;-64
2023/11/26 03:01:22;;;;;;;21.02;10.90;;;0.10;99.90;;;;;;5063426;28;20048;-63
2023/11/26 03:03:48;;;;;;;23.02;10.23;;;0.00;99.90;;;;;;5060750;28;20055;-58
2023/11/26 03:06:22;;;;;;;15.63;9.43;;;0.00;99.90;;;;;;5064007;28;20036;-63
2023/11/26 03:08:48;;;;;;;16.35;8.80;;;0.00;99.90;;;;;;5061720;28;20170;-62
2023/11/26 03:13:58;;;;;;;20.52;8.88;;;0.10;99.90;;;;;;5062162;28;20059;-65
2023/11/26 03:16:24;;;;;;;17.55;9.02;;;0.20;99.90;;;;;;5053723;28;20247;-63
2023/11/26 03:18:50;;;;;;;17.27;9.50;;;0.20;99.90;;;;;;5062671;28;20060;-63
2023/11/26 03:21:18;;;;;;;15.15;8.02;;;0.30;99.90;;;;;;5062761;28;20125;-63
2023/11/26 03:23:45;;;;;;;17.73;8.43;;;0.30;99.90;;;;;;5056675;28;20061;-63
2023/11/26 03:26:12;;;;;;;14.30;8.48;;;0.30;99.90;;;;;;5060765;28;20138;-65
2023/11/26 03:28:40;;;;;;;15.68;8.30;;;0.30;99.90;;;;;;5050314;28;20094;-64
2023/11/26 03:31:06;;;;;;;11.60;7.60;;;0.30;99.90;;;;;;5059421;28;20049;-64
2023/11/26 03:33:32;;;;;;;13.32;8.38;;;0.30;99.90;;;;;;5057487;28;20411;-64
2023/11/26 03:35:57;;;;;;;21.85;9.45;;;0.30;99.90;;;;;;5061436;28;20055;-63
2023/11/26 03:38:23;;;;;;;14.77;7.50;;;0.40;99.90;;;;;;5057091;28;20051;-65
2023/11/26 03:40:48;;;;;;;16.13;7.45;;;0.40;99.90;;;;;;5060670;28;20036;-65
2023/11/26 03:43:14;;;;;;;18.63;8.48;;;0.40;99.90;;;;;;5055608;28;20064;-64
2023/11/26 03:45:41;;;;;;;13.35;7.88;;;0.50;99.90;;;;;;5059064;28;20131;-62
2023/11/26 03:48:07;;;;;;;15.35;7.20;;;0.60;99.90;;;;;;5054737;28;20052;-64
2023/11/26 03:50:32;;;;;;;17.80;7.82;;;0.60;99.90;;;;;;5062559;28;20132;-65
2023/11/26 03:52:58;;;;;;;14.65;7.10;;;0.70;99.90;;;;;;5052662;28;20041;-64
2023/11/26 03:55:24;;;;;;;18.42;8.13;;;0.80;99.90;;;;;;5067087;28;20045;-65
2023/11/26 03:57:50;;;;;;;14.88;6.85;;;0.90;99.90;;;;;;5059146;28;20492;-64
2023/11/26 04:00:16;;;;;;;17.42;7.82;;;0.90;99.90;;;;;;5064322;28;20036;-65
2023/11/26 04:02:42;;;;;;;16.30;7.35;;;1.00;99.90;;;;;;5053829;28;20050;-63
2023/11/26 04:05:08;;;;;;;20.60;8.32;;;1.00;99.90;;;;;;5062957;28;20689;-65
2023/11/26 04:07:34;;;;;;;15.15;7.60;;;1.10;99.90;;;;;;5059038;28;20802;-64
2023/11/26 04:10:00;;;;;;;16.48;7.53;;;1.10;99.90;;;;;;5066440;28;20040;-65
2023/11/26 04:12:26;;;;;;;19.23;8.63;;;1.10;99.90;;;;;;5059054;28;20036;-65
2023/11/26 04:14:59;;;;;;;20.25;8.18;;;1.10;99.90;;;;;;5064177;28;20523;-64
2023/11/26 04:17:25;;;;;;;14.27;8.13;;;1.10;99.90;;;;;;5050201;28;20048;-64
2023/11/26 04:19:52;;;;;;;17.10;8.30;;;1.10;99.90;;;;;;5067133;28;20491;-63
2023/11/26 04:22:22;;;;;;;17.65;7.80;;;1.10;99.90;;;;;;5063692;28;20115;-63
2023/11/26 04:24:49;;;;;;;15.18;6.70;;;1.20;99.90;;;;;;5060722;28;20040;-63
2023/11/26 04:27:21;;;;;;;12.70;6.88;;;1.20;99.90;;;;;;5061518;28;20066;-63
2023/11/26 04:29:47;;;;;;;12.80;7.40;;;1.20;99.90;;;;;;5068705;28;20098;-62
2023/11/26 04:32:13;;;;;;;12.02;6.25;;;1.20;99.90;;;;;;5058954;28;20041;-63
2023/11/26 04:34:40;;;;;;;13.95;6.70;;;1.20;99.90;;;;;;5064674;28;20044;-62
2023/11/26 04:37:11;;;;;;;13.50;6.95;;;1.30;99.90;;;;;;5048534;28;20056;-64
2023/11/26 04:39:37;;;;;;;15.45;6.60;;;1.20;99.90;;;;;;5062982;28;20049;-62
2023/11/26 04:42:03;;;;;;;16.35;7.28;;;1.30;99.90;;;;;;5059275;28;20516;-62
2023/11/26 04:44:29;;;;;;;13.98;6.43;;;1.30;99.90;;;;;;5065126;28;20553;-64
2023/11/26 04:46:54;;;;;;;16.35;7.28;;;1.30;99.90;;;;;;5055300;28;20046;-63
2023/11/26 04:49:20;;;;;;;24.67;7.95;;;1.30;99.90;;;;;;5067440;28;20047;-64
2023/11/26 04:51:46;;;;;;;14.70;6.22;;;1.30;99.90;;;;;;5060125;28;20851;-64
2023/11/26 04:54:12;;;;;;;10.00;6.50;;;1.30;99.90;;;;;;5061005;28;20044;-63
2023/11/26 04:56:41;;;;;;;13.25;6.80;;;1.40;99.90;;;;;;5055596;28;20086;-62
2023/11/26 04:59:08;;;;;;;12.60;6.32;;;1.30;99.90;;;;;;5060007;28;20140;-64
2023/11/26 05:01:35;;;;;;;10.13;6.20;;;1.40;99.90;;;;;;5058598;28;20055;-64
2023/11/26 05:04:01;;;;;;;14.18;6.75;;;1.40;99.90;;;;;;5060719;28;20455;-64
2023/11/26 05:06:27;;;;;;;11.73;6.60;;;1.50;99.90;;;;;;5062052;28;20056;-63
2023/11/26 05:08:53;;;;;;;14.30;6.03;;;1.50;99.90;;;;;;5058411;28;20037;-64
2023/11/26 05:11:18;;;;;;;10.57;5.65;;;1.50;99.90;;;;;;5064492;28;20036;-63
2023/11/26 05:13:45;;;;;;;8.85;5.53;;;1.50;99.90;;;;;;5054246;28;20033;-63
2023/11/26 05:16:11;;;;;;;11.30;6.38;;;1.50;99.90;;;;;;5056283;28;20053;-62
2023/11/26 05:18:37;;;;;;;9.73;6.00;;;1.50;99.90;;;;;;5048170;28;20047;-65
2023/11/26 05:21:02;;;;;;;7.88;5.00;;;1.50;99.90;;;;;;5054795;28;20041;-64
2023/11/26 05:23:28;;;;;;;11.63;6.18;;;1.50;99.90;;;;;;5051745;28;20051;-63
2023/11/26 05:25:54;;;;;;;11.00;6.10;;;1.50;99.90;;;;;;5062157;28;20048;-64
2023/11/26 05:28:19;;;;;;;15.02;5.93;;;1.50;99.90;;;;;;5050593;28;20098;-64
2023/11/26 05:30:45;;;;;;;12.18;6.05;;;1.50;99.90;;;;;;5067284;28;20496;-64
2023/11/26 05:33:10;;;;;;;10.43;6.18;;;1.50;99.90;;;;;;5052762;28;20043;-65
2023/11/26 05:35:36;;;;;;;11.30;5.38;;;1.50;99.90;;;;;;5064246;28;20044;-65
2023/11/26 05:38:03;;;;;;;19.30;6.95;;;1.50;99.90;;;;;;5056348;28;20112;-65
2023/11/26 05:40:29;;;;;;;11.30;5.95;;;1.50;99.90;;;;;;5063953;28;20049;-64
2023/11/26 05:42:56;;;;;;;16.63;5.85;;;1.50;99.90;;;;;;5060962;28;20143;-64
2023/11/26 05:45:22;;;;;;;11.18;5.60;;;1.50;99.90;;;;;;5060886;28;20119;-62
2023/11/26 05:47:47;;;;;;;11.68;4.95;;;1.50;99.90;;;;;;5056319;28;20720;-63
2023/11/26 05:50:15;;;;;;;11.48;4.75;;;1.50;99.90;;;;;;5055884;28;20040;-63
2023/11/26 05:52:40;;;;;;;8.23;4.78;;;1.60;99.90;;;;;;5055550;28;20389;-65
2023/11/26 05:55:07;;;;;;;17.95;5.22;;;1.60;99.90;;;;;;5063961;28;20047;-64
2023/11/26 05:57:32;;;;;;;11.45;5.40;;;1.70;99.90;;;;;;5054401;28;20044;-62
2023/11/26 05:59:59;;;;;;;12.75;5.93;;;1.60;99.90;;;;;;5065636;28;20036;-66
2023/11/26 06:02:25;;;;;;;8.23;4.10;;;1.60;99.90;;;;;;5055864;28;20064;-64
2023/11/26 06:04:51;;;;;;;8.38;5.00;;;1.60;99.90;;;;;;5065276;28;20407;-62
2023/11/26 06:07:17;;;;;;;9.95;4.30;;;1.60;99.90;;;;;;5056559;28;20575;-63
2023/11/26 06:09:43;;;;;;;14.73;4.75;;;1.60;99.90;;;;;;5064493;28;20064;-65
2023/11/26 06:12:09;;;;;;;9.63;4.70;;;1.60;99.90;;;;;;5056337;28;20057;-62
2023/11/26 06:14:35;;;;;;;9.23;4.35;;;1.60;99.90;;;;;;5043969;28;20178;-64
2023/11/26 06:17:01;;;;;;;9.10;5.10;;;1.60;99.90;;;;;;5047175;28;20560;-67
2023/11/26 06:19:27;;;;;;;11.60;4.63;;;1.70;99.90;;;;;;5060360;28;20037;-65
2023/11/26 06:21:52;;;;;;;9.27;3.60;;;1.60;99.90;;;;;;5054021;28;20044;-62
2023/11/26 06:24:18;;;;;;;7.75;4.28;;;1.60;99.90;;;;;;5052196;28;20404;-65
2023/11/26 06:26:44;;;;;;;10.32;3.88;;;1.60;99.90;;;;;;5053508;28;20056;-63
2023/11/26 06:29:11;;;;;;;8.45;3.50;;;1.60;99.90;;;;;;5058700;28;20137;-65
2023/11/26 06:31:37;;;;;;;9.82;4.55;;;1.60;99.90;;;;;;5058767;28;20036;-60
2023/11/26 06:34:02;;;;;;;10.27;3.72;;;1.60;99.90;;;;;;5054048;28;20044;-65
2023/11/26 06:36:28;;;;;;;13.80;3.78;;;1.60;99.90;;;;;;5058414;28;20045;-63
2023/11/26 06:38:55;;;;;;;10.13;4.15;;;1.60;99.90;;;;;;5057389;28;20037;-64
2023/11/26 06:41:24;;;;;;;13.23;3.83;;;1.60;99.90;;;;;;5063075;28;20055;-65
2023/11/26 06:43:53;;;;;;;10.55;3.63;;;1.70;99.90;;;;;;5060907;28;20032;-60
2023/11/26 06:46:23;;;;;;;9.52;3.80;;;1.60;99.90;;;;;;5053569;28;20040;-62
2023/11/26 06:48:50;;;;;;;8.20;3.40;;;1.70;99.90;;;;;;5060703;28;20097;-57
2023/11/26 06:51:17;;;;;;;14.63;4.40;;;1.70;99.90;;;;;;5056060;28;20115;-64
2023/11/26 06:53:44;;;;;;;9.50;4.82;;;1.70;99.90;;;;;;5054987;28;20044;-64
2023/11/26 06:56:09;;;;;;;10.73;5.15;;;1.70;99.90;;;;;;5051057;28;20669;-64
2023/11/26 06:58:39;;;;;;;11.52;4.20;;;1.70;99.90;;;;;;5050886;28;20076;-65
2023/11/26 07:01:06;;;;;;;14.32;4.38;;;1.70;99.90;;;;;;5061432;28;20519;-65
2023/11/26 07:03:32;;;;;;;7.53;4.43;;;1.70;99.90;;;;;;5051472;28;20051;-63
2023/11/26 07:06:04;;;;;;;13.48;4.60;;;1.70;99.90;;;;;;5061133;28;20813;-61
2023/11/26 07:08:31;;;;;;;13.02;4.80;;;1.70;99.90;;;;;;5053853;28;20041;-63
2023/11/26 07:10:58;;;;;;;17.42;4.85;;;1.70;99.90;;;;;;5057010;28;20045;-66
2023/11/26 07:13:25;;;;;;;10.38;4.82;;;1.80;99.90;;;;;;5050808;28;20048;-66
2023/11/26 07:15:51;;;;;;;10.15;5.32;;;1.80;99.90;;;;;;5056411;28;20162;-63
2023/11/26 07:18:18;;;;;;;12.43;4.90;;;1.90;99.90;;;;;;5059086;28;20040;-65
2023/11/26 07:20:45;;;;;;;9.82;4.57;;;1.90;99.90;;;;;;5060552;28;20056;-63
2023/11/26 07:23:11;;;;;;;16.42;5.43;;;1.90;99.90;;;;;;5054494;28;20047;-64
2023/11/26 07:25:39;;;;;;;11.32;5.22;;;1.90;99.90;;;;;;5061594;28;20112;-64
2023/11/26 07:28:07;;;;;;;10.85;5.10;;;1.90;99.90;;;;;;5052575;28;20248;-63
2023/11/26 07:30:32;;;;;;;10.77;4.90;;;1.90;99.90;;;;;;5055984;28;20044;-64
2023/11/26 07:32:58;;;;;;;16.95;5.88;;;1.90;99.90;;;;;;5056316;28;20122;-64
2023/11/26 07:35:24;;;;;;;16.38;6.18;;;1.90;99.90;;;;;;5064524;28;20450;-62
2023/11/26 07:37:50;;;;;;;16.52;6.80;;;2.00;99.90;;;;;;5058518;28;20029;-64
2023/11/26 07:40:16;;;;;;;11.63;5.75;;;2.00;99.90;;;;;;5061178;28;20041;-61
2023/11/26 07:42:41;;;;;;;12.07;6.07;;;1.90;99.90;;;;;;5060566;28;20514;-61
2023/11/26 07:45:08;;;;;;;13.05;5.90;;;2.00;99.90;;;;;;5061025;28;20083;-62
2023/11/26 07:47:34;;;;;;;13.00;5.93;;;2.00;99.90;;;;;;5058448;28;20044;-63
2023/11/26 07:50:00;;;;;;;13.80;6.18;;;2.00;99.90;;;;;;5061052;28;20045;-64
2023/11/26 07:52:26;;;;;;;13.18;5.85;;;2.00;99.90;;;;;;5059159;28;20048;-65
2023/11/26 07:54:53;;;;;;;15.00;6.20;;;2.00;99.90;;;;;;5061813;28;20082;-64
2023/11/26 07:57:18;;;;;;;16.10;6.28;;;2.00;99.90;;;;;;5055490;28;20048;-65
2023/11/26 07:59:44;;;;;;;18.00;6.50;;;2.00;99.90;;;;;;5058425;28;20095;-61
2023/11/26 08:02:11;;;;;;;15.38;6.43;;;2.10;99.90;;;;;;5055354;28;20038;-60
2023/11/26 08:04:39;;;;;;;19.48;6.75;;;2.10;99.90;;;;;;5067342;28;20063;-64
2023/11/26 08:07:05;;;;;;;18.05;6.78;;;2.10;99.90;;;;;;5059547;28;20079;-65
2023/11/26 08:09:32;;;;;;;16.58;6.57;;;2.10;99.90;;;;;;5066315;28;20036;-66
2023/11/26 08:12:00;;;;;;;19.02;7.20;;;2.20;99.90;;;;;;5054680;28;20048;-64
2023/11/26 08:14:27;;;;;;;20.67;7.43;;;2.20;99.90;;;;;;5060912;28;20461;-63
2023/11/26 08:16:57;;;;;;;18.98;7.10;;;2.20;99.90;;;;;;5051412;28;20069;-62
2023/11/26 08:19:24;;;;;;;18.30;6.88;;;2.30;99.90;;;;;;5062813;28;20036;-63
2023/11/26 08:21:53;;;;;;;13.75;6.55;;;2.30;99.90;;;;;;5052836;28;20401;-64
2023/11/26 08:24:19;;;;;;;21.38;7.15;;;2.30;99.90;;;;;;5061705;28;20063;-64
2023/11/26 08:26:46;;;;;;;12.30;6.25;;;2.40;99.90;;;;;;5057820;28;20053;-65
2023/11/26 08:29:13;;;;;;;18.27;6.80;;;2.40;99.90;;;;;;5066122;28;20036;-65
2023/11/26 08:31:46;;;;;;;15.93;7.18;;;2.40;99.90;;;;;;5055050;28;20037;-67
2023/11/26 08:34:15;;;;;;;13.38;6.90;;;2.40;99.90;;;;;;5062909;28;20044;-67
2023/11/26 08:36:42;;;;;;;17.52;8.05;;;2.40;99.90;;;;;;5052118;28;20091;-64
2023/11/26 08:39:18;;;;;;;17.38;6.68;;;2.40;99.90;;;;;;5059260;28;20484;-65
2023/11/26 08:41:45;;;;;;;17.95;6.32;;;2.40;99.90;;;;;;5050289;28;20084;-64
2023/11/26 08:44:10;;;;;;;15.90;6.35;;;2.50;99.90;;;;;;5060279;28;20171;-65
2023/11/26 08:46:37;;;;;;;16.10;7.05;;;2.50;99.90;;;;;;5061908;28;20679;-65
2023/11/26 08:49:03;;;;;;;16.05;7.03;;;2.60;99.90;;;;;;5055306;28;20039;-65
2023/11/26 08:51:35;;;;;;;16.73;6.88;;;2.60;99.90;;;;;;5064509;28;20094;-63
2023/11/26 08:54:02;;;;;;;14.52;5.82;;;2.70;99.90;;;;;;5045124;28;20033;-64
2023/11/26 08:56:28;;;;;;;17.67;6.22;;;2.70;99.90;;;;;;5051033;28;20045;-65
2023/11/26 08:58:54;;;;;;;16.77;6.00;;;2.70;99.90;;;;;;5056079;28;20384;-65
2023/11/26 09:01:20;;;;;;;13.02;5.45;;;2.80;99.90;;;;;;5060456;28;20044;-66
2023/11/26 09:03:46;;;;;;;11.73;5.60;;;2.80;99.90;;;;;;5063527;28;20039;-64
2023/11/26 09:06:12;;;;;;;20.83;6.72;;;2.80;99.90;;;;;;5057491;28;20040;-66
2023/11/26 09:08:38;;;;;;;18.40;6.93;;;2.70;99.90;;;;;;5053364;28;20036;-66
2023/11/26 09:11:04;;;;;;;19.42;7.75;;;2.70;99.90;;;;;;5058274;28;20955;-64
2023/11/26 09:13:30;;;;;;;19.00;6.20;;;2.70;99.90;;;;;;5051568;28;20052;-64
2023/11/26 09:15:57;;;;;;;17.27;6.40;;;2.60;99.90;;;;;;5053656;28;20037;-66
2023/11/26 09:18:23;;;;;;;21.10;6.50;;;2.70;99.90;;;;;;5046072;28;20121;-65
2023/11/26 09:20:49;;;;;;;13.18;5.70;;;2.60;99.90;;;;;;5060630;28;20172;-65
2023/11/26 09:23:15;;;;;;;17.85;6.97;;;2.70;99.90;;;;;;5052710;28;20512;-64
2023/11/26 09:25:40;;;;;;;14.60;6.63;;;2.70;99.90;;;;;;5047860;28;20038;-65
2023/11/26 09:28:06;;;;;;;18.52;6.68;;;2.60;99.90;;;;;;5051197;28;20025;-65
2023/11/26 09:30:32;;;;;;;20.70;7.35;;;2.70;99.90;;;;;;5055647;28;20109;-65
2023/11/26 09:32:58;;;;;;;28.25;8.75;;;2.60;99.90;;;;;;5058668;28;20121;-66
2023/11/26 09:35:24;;;;;;;18.42;6.40;;;2.60;99.90;;;;;;5051667;28;20045;-66
2023/11/26 09:37:50;;;;;;;17.35;7.10;;;2.60;99.90;;;;;;5052150;28;20114;-64
2023/11/26 09:40:15;;;;;;;17.10;6.72;;;2.50;99.90;;;;;;5064686;28;20063;-64
2023/11/26 09:42:48;;;;;;;22.67;5.93;;;2.60;99.90;;;;;;5050069;28;20116;-62
2023/11/26 09:45:15;;;;;;;15.73;6.20;;;2.60;99.90;;;;;;5059741;28;20407;-64
2023/11/26 09:47:41;;;;;;;13.65;4.55;;;2.60;99.90;;;;;;5056932;28;20519;-61
2023/11/26 09:50:09;;;;;;;9.98;5.13;;;2.70;99.90;;;;;;5060045;28;20037;-66
2023/11/26 09:52:37;;;;;;;9.65;5.03;;;2.70;99.90;;;;;;5061178;28;20413;-59
2023/11/26 09:55:03;;;;;;;14.32;5.30;;;2.80;99.90;;;;;;5057128;28;20044;-65
2023/11/26 09:57:33;;;;;;;11.68;4.53;;;2.90;99.90;;;;;;5050620;28;20041;-65
2023/11/26 09:59:59;;;;;;;7.53;3.95;;;3.00;99.90;;;;;;5064230;28;20040;-64
2023/11/26 10:02:25;;;;;;;13.35;4.72;;;3.10;99.90;;;;;;5047443;28;20115;-64
2023/11/26 10:04:53;;;;;;;11.82;4.90;;;3.00;99.90;;;;;;5062714;28;20037;-63
2023/11/26 10:07:36;;;;;;;10.82;3.90;;;3.00;99.90;;;;;;5054550;28;20413;-64
2023/11/26 10:10:12;;;;;;;10.75;3.25;;;2.90;99.90;;;;;;5056427;28;20117;-65
2023/11/26 10:12:59;;;;;;;3.75;2.55;;;2.90;99.90;;;;;;5065596;22;20491;-78
2023/11/26 10:15:29;;;;;;;4.45;2.45;;;2.90;99.90;;;;;;5056128;28;20067;-78
2023/11/26 10:17:59;;;;;;;5.55;2.25;;;3.00;99.90;;;;;;5048505;28;20048;-78
2023/11/26 10:20:26;;;;;;;4.40;2.17;;;2.90;99.90;;;;;;5053263;28;20403;-77
2023/11/26 10:22:56;;;;;;;3.30;2.20;;;2.90;99.90;;;;;;5071912;28;20390;-79
2023/11/26 10:25:23;;;;;;;3.80;2.45;;;2.90;99.90;;;;;;5072848;28;20536;-78
2023/11/26 10:27:50;;;;;;;5.10;2.72;;;2.90;99.90;;;;;;5052988;28;20444;-79
2023/11/26 10:30:36;;;;;;;3.90;2.38;;;2.90;99.90;;;;;;5062301;28;20040;-79
2023/11/26 10:33:04;;;;;;;4.25;2.28;;;2.80;99.90;;;;;;5062546;28;20096;-78
2023/11/26 10:35:52;;;;;;;5.47;2.47;;;2.90;99.90;;;;;;5070778;28;20040;-79
2023/11/26 10:38:21;;;;;;;7.78;2.60;;;2.80;99.90;;;;;;5062492;28;20072;-79
2023/11/26 10:40:48;;;;;;;4.82;2.05;;;2.80;99.90;;;;;;5054125;28;20479;-79
2023/11/26 10:43:14;;;;;;;6.32;2.60;;;2.80;99.90;;;;;;5056976;28;20425;-79
2023/11/26 10:45:44;;;;;;;7.22;2.42;;;2.80;99.90;;;;;;5056774;28;20039;-79
2023/11/26 10:48:14;;;;;;;5.22;3.53;;;2.80;99.90;;;;;;5049677;28;20082;-79
2023/11/26 10:50:48;;;;;;;6.20;2.95;;;2.80;99.90;;;;;;5052701;28;20082;-78
2023/11/26 10:53:49;;;;;;;5.32;2.88;;;2.80;99.90;;;;;;5053379;28;20859;-79
2023/11/26 10:56:23;;;;;;;10.00;3.95;;;2.80;99.90;;;;;;5056364;28;20054;-77
2023/11/26 10:58:51;;;;;;;7.03;3.05;;;2.90;99.90;;;;;;5054424;28;20086;-77
2023/11/26 11:01:17;;;;;;;5.47;3.08;;;2.90;99.90;;;;;;5053956;28;20040;-78
2023/11/26 11:03:43;;;;;;;6.80;2.70;;;3.00;99.90;;;;;;5051162;28;20474;-78
2023/11/26 11:06:12;;;;;;;7.82;2.80;;;3.10;99.90;;;;;;5054086;28;20062;-78
2023/11/26 11:08:42;;;;;;;4.78;2.70;;;3.10;99.90;;;;;;5057715;28;20040;-79
2023/11/26 11:11:29;;;;;;;7.18;3.03;;;3.10;99.90;;;;;;5060252;28;20033;-79
2023/11/26 11:13:56;;;;;;;7.75;3.13;;;3.00;99.90;;;;;;5054062;28;20559;-78
2023/11/26 11:16:23;;;;;;;10.85;3.50;;;3.10;99.90;;;;;;5054856;28;20051;-79
2023/11/26 11:18:49;;;;;;;5.43;2.83;;;3.00;99.90;;;;;;5056092;28;20055;-80
2023/11/26 11:21:17;;;;;;;7.55;2.78;;;3.00;99.90;;;;;;5057972;28;20048;-79
2023/11/26 11:23:51;;;;;;;6.00;2.65;;;3.10;99.90;;;;;;5057392;28;20561;-78
2023/11/26 11:26:22;;;;;;;4.47;2.75;;;3.10;99.90;;;;;;5056221;28;20055;-77
2023/11/26 11:28:55;;;;;;;7.55;3.60;;;3.10;99.90;;;;;;5059518;28;20056;-78
2023/11/26 11:31:58;;;;;;;8.00;3.30;;;3.10;99.90;;;;;;5057757;28;20067;-78
2023/11/26 11:34:24;;;;;;;6.72;3.25;;;3.00;99.90;;;;;;5054950;28;20703;-78
2023/11/26 11:36:53;;;;;;;8.65;4.78;;;3.00;99.90;;;;;;5056245;28;20041;-78
2023/11/26 11:39:51;;;;;;;5.90;3.33;;;3.00;99.90;;;;;;5052781;28;20040;-76
2023/11/26 11:42:26;;;;;;;9.38;3.58;;;3.00;99.90;;;;;;5058266;28;20147;-74
2023/11/26 11:44:52;;;;;;;11.80;3.63;;;3.10;99.90;;;;;;5074113;28;20098;-78
2023/11/26 11:47:43;;;;;;;10.05;3.58;;;3.10;99.90;;;;;;5069713;28;20092;-77
2023/11/26 11:50:11;;;;;;;8.30;3.00;;;3.10;99.90;;;;;;5074926;28;20040;-77
2023/11/26 11:52:38;;;;;;;9.13;3.58;;;3.20;99.90;;;;;;5052529;28;20041;-77
2023/11/26 11:55:33;;;;;;;7.95;3.45;;;3.10;99.90;;;;;;5050487;28;20044;-76
2023/11/26 11:58:11;;;;;;;13.77;4.53;;;3.20;99.90;;;;;;5064371;28;20042;-77
2023/11/26 12:00:37;;;;;;;8.27;3.53;;;3.20;99.90;;;;;;5049588;28;20032;-76
2023/11/26 12:03:04;;;;;;;9.30;3.03;;;3.20;99.90;;;;;;5068025;28;20037;-76
2023/11/26 12:05:30;;;;;;;7.15;3.40;;;3.10;99.90;;;;;;5051150;28;20041;-76
2023/11/26 12:07:59;;;;;;;7.38;2.72;;;3.10;99.90;;;;;;5066535;28;20040;-77
2023/11/26 12:10:26;;;;;;;8.55;3.08;;;3.10;99.90;;;;;;5049938;28;20046;-77
2023/11/26 12:13:06;;;;;;;9.40;2.92;;;3.10;99.90;;;;;;5050491;28;20055;-77
2023/11/26 12:15:34;;;;;;;7.15;3.05;;;3.10;99.90;;;;;;5053697;28;21058;-77
2023/11/26 12:18:00;;;;;;;6.10;2.72;;;3.00;99.90;;;;;;5049807;28;20087;-76
2023/11/26 12:20:27;;;;;;;5.53;2.90;;;3.10;99.90;;;;;;5054101;28;20051;-77
2023/11/26 12:22:54;;;;;;;6.75;2.80;;;3.10;99.90;;;;;;5056841;28;20113;-77
2023/11/26 12:25:21;;;;;;;4.82;2.55;;;3.00;99.90;;;;;;5054324;28;20051;-77
2023/11/26 12:28:04;;;;;;;7.10;3.78;;;3.10;99.90;;;;;;5056407;28;20118;-78
2023/11/26 12:30:30;;;;;;;6.25;3.58;;;3.00;99.90;;;;;;5055253;28;20102;-77
2023/11/26 12:32:56;;;;;;;10.20;3.30;;;3.10;99.90;;;;;;5061670;28;20032;-78
2023/11/26 12:35:25;;;;;;;6.45;3.63;;;3.10;99.90;;;;;;5054018;28;20049;-77
2023/11/26 12:37:51;;;;;;;7.15;3.30;;;3.10;99.90;;;;;;5051761;28;20045;-76
2023/11/26 12:40:19;;;;;;;11.77;3.75;;;3.20;99.90;;;;;;5051931;28;20058;-76
2023/11/26 12:42:45;;;;;;;6.90;3.55;;;3.20;99.90;;;;;;5051179;28;20043;-76
2023/11/26 12:45:12;;;;;;;11.05;3.75;;;3.10;99.90;;;;;;5054361;28;20029;-77
2023/11/26 12:47:51;;;;;;;7.72;3.75;;;3.20;99.90;;;;;;5064804;28;20155;-78
2023/11/26 12:50:18;;;;;;;5.57;3.38;;;3.20;99.90;;;;;;5055340;28;20029;-77
2023/11/26 12:52:46;;;;;;;10.65;4.00;;;3.30;99.90;;;;;;5056691;28;20037;-78
2023/11/26 12:55:12;;;;;;;8.77;3.38;;;3.20;99.90;;;;;;5057306;28;20040;-78